sensor_id;sensor_type;location;lat;lon;timestamp;temperature;humidity
1644;DHT22;46825;51.99869940;8.49421771;2022-11-20T00:00:49;-2.30;99.90
1644;DHT22;46825;51.99869940;8.49421771;2022-11-20T00:01:50;-2.20;99.90
1644;DHT22;46825;51.99869940;8.49421771;2022-11-20T00:02:51;-2.20;99.90
1644;DHT22;46825;51.99869940;8.49421771;2022-11-20T00:03:53;-2.20;99.90
1644;DHT22;46825;51.99869940;8.49421771;2022-11-20T00:04:54;-2.20;99.90
1644;DHT22;46825;51.99869940;8.49421771;2022-11-20T00:06:02;-2.30;99.90
1644;DHT22;46825;51.99869940;8.49421771;2022-11-20T00:07:04;-2.30;99.90
1644;DHT22;46825;51.99869940;8.49421771;2022-11-20T00:08:05;-2.30;99.90
1644;DHT22;46825;51.99869940;8.49421771;2022-11-20T00:09:05;-2.30;99.90
1644;DHT22;46825;51.99869940;8.49421771;2022-11-20T00:10:07;-2.30;99.90
1644;DHT22;46825;51.99869940;8.49421771;2022-11-20T00:11:10;-2.30;99.90
1644;DHT22;46825;51.99869940;8.49421771;2022-11-20T00:12:11;-2.30;99.90
1644;DHT22;46825;51.99869940;8.49421771;2022-11-20T00:13:12;-2.30;99.90
1644;DHT22;46825;51.99869940;8.49421771;2022-11-20T00:14:12;-2.40;99.90
1644;DHT22;46825;51.99869940;8.49421771;2022-11-20T00:15:13;-1.80;99.90
1644;DHT22;46825;51.99869940;8.49421771;2022-11-20T00:16:15;-2.30;99.90
1644;DHT22;46825;51.99869940;8.49421771;2022-11-20T00:17:16;-2.30;99.90
1644;DHT22;46825;51.99869940;8.49421771;2022-11-20T00:19:18;-2.40;99.90
1644;DHT22;46825;51.99869940;8.49421771;2022-11-20T00:20:18;-2.40;99.90
1644;DHT22;46825;51.99869940;8.49421771;2022-11-20T00:21:21;-2.40;99.90
1644;DHT22;46825;51.99869940;8.49421771;2022-11-20T00:22:22;-2.50;99.90
1644;DHT22;46825;51.99869940;8.49421771;2022-11-20T00:24:23;-2.50;99.90
1644;DHT22;46825;51.99869940;8.49421771;2022-11-20T00:25:24;-2.50;99.90
1644;DHT22;46825;51.99869940;8.49421771;2022-11-20T00:26:26;-2.50;99.90
1644;DHT22;46825;51.99869940;8.49421771;2022-11-20T00:27:27;-2.50;99.90
1644;DHT22;46825;51.99869940;8.49421771;2022-11-20T00:28:27;-2.50;99.90
1644;DHT22;46825;51.99869940;8.49421771;2022-11-20T00:29:28;-2.60;99.90
1644;DHT22;46825;51.99869940;8.49421771;2022-11-20T00:30:29;-2.60;99.90
1644;DHT22;46825;51.99869940;8.49421771;2022-11-20T00:31:30;-2.60;99.90
1644;DHT22;46825;51.99869940;8.49421771;2022-11-20T00:32:33;-2.70;99.90
1644;DHT22;46825;51.99869940;8.49421771;2022-11-20T00:33:34;-2.60;99.90
1644;DHT22;46825;51.99869940;8.49421771;2022-11-20T00:34:35;-2.60;99.90
1644;DHT22;46825;51.99869940;8.49421771;2022-11-20T00:35:35;-2.60;99.90
1644;DHT22;46825;51.99869940;8.49421771;2022-11-20T00:36:36;-2.50;99.90
1644;DHT22;46825;51.99869940;8.49421771;2022-11-20T00:37:37;-2.50;99.90
1644;DHT22;46825;51.99869940;8.49421771;2022-11-20T00:38:37;-2.50;99.90
1644;DHT22;46825;51.99869940;8.49421771;2022-11-20T00:39:38;-3.40;99.90
1644;DHT22;46825;51.99869940;8.49421771;2022-11-20T00:40:39;-2.60;99.90
1644;DHT22;46825;51.99869940;8.49421771;2022-11-20T00:41:39;-2.70;99.90
1644;DHT22;46825;51.99869940;8.49421771;2022-11-20T00:42:40;-2.70;99.90
1644;DHT22;46825;51.99869940;8.49421771;2022-11-20T00:43:41;-2.70;99.90
1644;DHT22;46825;51.99869940;8.49421771;2022-11-20T00:44:41;-2.70;99.90
1644;DHT22;46825;51.99869940;8.49421771;2022-11-20T00:45:42;-2.50;99.90
1644;DHT22;46825;51.99869940;8.49421771;2022-11-20T00:46:43;-2.30;99.90
1644;DHT22;46825;51.99869940;8.49421771;2022-11-20T00:47:43;-2.30;99.90
1644;DHT22;46825;51.99869940;8.49421771;2022-11-20T00:48:45;-2.30;99.90
1644;DHT22;46825;51.99869940;8.49421771;2022-11-20T00:49:45;-2.30;99.90
1644;DHT22;46825;51.99869940;8.49421771;2022-11-20T00:50:46;-2.40;99.90
1644;DHT22;46825;51.99869940;8.49421771;2022-11-20T00:51:47;-2.30;99.90
1644;DHT22;46825;51.99869940;8.49421771;2022-11-20T00:52:47;-2.30;99.90
1644;DHT22;46825;51.99869940;8.49421771;2022-11-20T00:53:48;-2.20;99.90
1644;DHT22;46825;51.99869940;8.49421771;2022-11-20T00:54:49;-2.20;99.90
1644;DHT22;46825;51.99869940;8.49421771;2022-11-20T00:55:58;-2.10;99.90
1644;DHT22;46825;51.99869940;8.49421771;2022-11-20T00:56:59;-2.10;99.90
1644;DHT22;46825;51.99869940;8.49421771;2022-11-20T00:57:59;-2.10;99.90
1644;DHT22;46825;51.99869940;8.49421771;2022-11-20T00:59:00;-2.20;99.90
1644;DHT22;46825;51.99869940;8.49421771;2022-11-20T01:00:01;-1.90;99.90
1644;DHT22;46825;51.99869940;8.49421771;2022-11-20T01:01:25;-1.60;99.90
1644;DHT22;46825;51.99869940;8.49421771;2022-11-20T01:02:24;-1.60;99.90
1644;DHT22;46825;51.99869940;8.49421771;2022-11-20T01:03:25;-1.70;99.90
1644;DHT22;46825;51.99869940;8.49421771;2022-11-20T01:04:27;-1.70;99.90
1644;DHT22;46825;51.99869940;8.49421771;2022-11-20T01:05:28;-1.70;99.90
1644;DHT22;46825;51.99869940;8.49421771;2022-11-20T01:06:36;-1.70;99.90
1644;DHT22;46825;51.99869940;8.49421771;2022-11-20T01:07:37;-1.60;99.90
1644;DHT22;46825;51.99869940;8.49421771;2022-11-20T01:08:39;-1.50;99.90
1644;DHT22;46825;51.99869940;8.49421771;2022-11-20T01:09:39;-1.50;99.90
1644;DHT22;46825;51.99869940;8.49421771;2022-11-20T01:10:40;-1.60;99.90
1644;DHT22;46825;51.99869940;8.49421771;2022-11-20T01:11:44;-1.60;99.90
1644;DHT22;46825;51.99869940;8.49421771;2022-11-20T01:12:45;-1.70;99.90
1644;DHT22;46825;51.99869940;8.49421771;2022-11-20T01:14:07;-1.70;99.90
1644;DHT22;46825;51.99869940;8.49421771;2022-11-20T01:15:09;-1.80;99.90
1644;DHT22;46825;51.99869940;8.49421771;2022-11-20T01:16:16;-1.90;99.90
1644;DHT22;46825;51.99869940;8.49421771;2022-11-20T01:17:17;-1.90;99.90
1644;DHT22;46825;51.99869940;8.49421771;2022-11-20T01:18:18;-1.90;99.90
1644;DHT22;46825;51.99869940;8.49421771;2022-11-20T01:20:21;-2.10;99.90
1644;DHT22;46825;51.99869940;8.49421771;2022-11-20T01:21:25;-2.10;99.90
1644;DHT22;46825;51.99869940;8.49421771;2022-11-20T01:22:26;-2.00;99.90
1644;DHT22;46825;51.99869940;8.49421771;2022-11-20T01:23:26;-2.00;99.90
1644;DHT22;46825;51.99869940;8.49421771;2022-11-20T01:24:30;-2.00;99.90
1644;DHT22;46825;51.99869940;8.49421771;2022-11-20T01:25:30;-1.80;99.90
1644;DHT22;46825;51.99869940;8.49421771;2022-11-20T01:26:33;-1.90;99.90
1644;DHT22;46825;51.99869940;8.49421771;2022-11-20T01:27:34;-2.00;99.90
1644;DHT22;46825;51.99869940;8.49421771;2022-11-20T01:28:34;-1.90;99.90
1644;DHT22;46825;51.99869940;8.49421771;2022-11-20T01:29:35;-1.90;99.90
1644;DHT22;46825;51.99869940;8.49421771;2022-11-20T01:30:36;-1.80;99.90
1644;DHT22;46825;51.99869940;8.49421771;2022-11-20T01:31:37;-1.70;99.90
1644;DHT22;46825;51.99869940;8.49421771;2022-11-20T01:32:37;-1.70;99.90
1644;DHT22;46825;51.99869940;8.49421771;2022-11-20T01:33:39;-1.70;99.90
1644;DHT22;46825;51.99869940;8.49421771;2022-11-20T01:34:40;-1.70;99.90
1644;DHT22;46825;51.99869940;8.49421771;2022-11-20T01:35:41;-1.70;99.90
1644;DHT22;46825;51.99869940;8.49421771;2022-11-20T01:36:42;-1.60;99.90
1644;DHT22;46825;51.99869940;8.49421771;2022-11-20T01:37:43;-1.50;99.90
1644;DHT22;46825;51.99869940;8.49421771;2022-11-20T01:38:44;-1.50;99.90
1644;DHT22;46825;51.99869940;8.49421771;2022-11-20T01:39:44;-1.50;99.90
1644;DHT22;46825;51.99869940;8.49421771;2022-11-20T01:40:53;-1.50;99.90
1644;DHT22;46825;51.99869940;8.49421771;2022-11-20T01:41:55;-1.50;99.90
1644;DHT22;46825;51.99869940;8.49421771;2022-11-20T01:43:18;-1.70;99.90
1644;DHT22;46825;51.99869940;8.49421771;2022-11-20T01:47:03;-1.90;99.90
1644;DHT22;46825;51.99869940;8.49421771;2022-11-20T01:48:04;-2.00;99.90
1644;DHT22;46825;51.99869940;8.49421771;2022-11-20T01:49:18;-2.00;99.90
1644;DHT22;46825;51.99869940;8.49421771;2022-11-20T01:52:55;-2.10;99.90
1644;DHT22;46825;51.99869940;8.49421771;2022-11-20T01:54:01;-2.20;99.90
1644;DHT22;46825;51.99869940;8.49421771;2022-11-20T01:55:07;-2.00;99.90
1644;DHT22;46825;51.99869940;8.49421771;2022-11-20T01:56:12;-2.20;99.90
1644;DHT22;46825;51.99869940;8.49421771;2022-11-20T01:57:14;-2.20;99.90
1644;DHT22;46825;51.99869940;8.49421771;2022-11-20T01:58:17;-2.30;99.90
1644;DHT22;46825;51.99869940;8.49421771;2022-11-20T01:59:20;-2.20;99.90
1644;DHT22;46825;51.99869940;8.49421771;2022-11-20T02:00:23;-2.10;99.90
1644;DHT22;46825;51.99869940;8.49421771;2022-11-20T02:01:24;-2.00;99.90
1644;DHT22;46825;51.99869940;8.49421771;2022-11-20T02:02:25;-1.90;99.90
1644;DHT22;46825;51.99869940;8.49421771;2022-11-20T02:03:26;-2.20;99.90
1644;DHT22;46825;51.99869940;8.49421771;2022-11-20T02:04:27;-2.40;99.90
1644;DHT22;46825;51.99869940;8.49421771;2022-11-20T02:05:47;-2.50;99.90
1644;DHT22;46825;51.99869940;8.49421771;2022-11-20T02:07:56;-2.90;99.90
1644;DHT22;46825;51.99869940;8.49421771;2022-11-20T02:08:58;-3.00;99.90
1644;DHT22;46825;51.99869940;8.49421771;2022-11-20T02:09:59;-3.00;99.90
1644;DHT22;46825;51.99869940;8.49421771;2022-11-20T02:10:59;-3.10;99.90
1644;DHT22;46825;51.99869940;8.49421771;2022-11-20T02:12:01;-3.00;99.90
1644;DHT22;46825;51.99869940;8.49421771;2022-11-20T02:13:02;-3.00;99.90
1644;DHT22;46825;51.99869940;8.49421771;2022-11-20T02:14:22;-2.70;99.90
1644;DHT22;46825;51.99869940;8.49421771;2022-11-20T02:15:23;-2.90;99.90
1644;DHT22;46825;51.99869940;8.49421771;2022-11-20T02:16:26;-2.90;99.90
1644;DHT22;46825;51.99869940;8.49421771;2022-11-20T02:17:27;-2.50;99.90
1644;DHT22;46825;51.99869940;8.49421771;2022-11-20T02:18:28;-2.50;99.90
1644;DHT22;46825;51.99869940;8.49421771;2022-11-20T02:19:31;-2.30;99.90
1644;DHT22;46825;51.99869940;8.49421771;2022-11-20T02:20:32;-2.20;99.90
1644;DHT22;46825;51.99869940;8.49421771;2022-11-20T02:21:37;-1.90;99.90
1644;DHT22;46825;51.99869940;8.49421771;2022-11-20T02:23:05;-2.30;99.90
1644;DHT22;46825;51.99869940;8.49421771;2022-11-20T02:24:11;-2.20;99.90
1644;DHT22;46825;51.99869940;8.49421771;2022-11-20T02:25:13;-2.10;99.90
1644;DHT22;46825;51.99869940;8.49421771;2022-11-20T02:26:15;-2.00;99.90
1644;DHT22;46825;51.99869940;8.49421771;2022-11-20T02:27:17;-1.90;99.90
1644;DHT22;46825;51.99869940;8.49421771;2022-11-20T02:28:18;-1.90;99.90
1644;DHT22;46825;51.99869940;8.49421771;2022-11-20T02:29:31;-1.90;99.90
1644;DHT22;46825;51.99869940;8.49421771;2022-11-20T02:30:32;-2.00;99.90
1644;DHT22;46825;51.99869940;8.49421771;2022-11-20T02:31:38;-1.10;99.90
1644;DHT22;46825;51.99869940;8.49421771;2022-11-20T02:32:40;-2.10;99.90
1644;DHT22;46825;51.99869940;8.49421771;2022-11-20T02:33:41;-2.10;99.90
1644;DHT22;46825;51.99869940;8.49421771;2022-11-20T02:34:41;-2.20;99.90
1644;DHT22;46825;51.99869940;8.49421771;2022-11-20T02:35:44;-2.00;99.90
1644;DHT22;46825;51.99869940;8.49421771;2022-11-20T02:36:46;-1.90;99.90
1644;DHT22;46825;51.99869940;8.49421771;2022-11-20T02:37:50;-1.80;99.90
1644;DHT22;46825;51.99869940;8.49421771;2022-11-20T02:38:51;-1.80;99.90
1644;DHT22;46825;51.99869940;8.49421771;2022-11-20T02:39:52;-1.80;99.90
1644;DHT22;46825;51.99869940;8.49421771;2022-11-20T02:40:52;-1.80;99.90
1644;DHT22;46825;51.99869940;8.49421771;2022-11-20T02:41:54;-1.70;99.90
1644;DHT22;46825;51.99869940;8.49421771;2022-11-20T02:42:56;-1.60;99.90
1644;DHT22;46825;51.99869940;8.49421771;2022-11-20T02:43:57;-1.70;99.90
1644;DHT22;46825;51.99869940;8.49421771;2022-11-20T02:44:58;-1.50;99.90
1644;DHT22;46825;51.99869940;8.49421771;2022-11-20T02:45:58;-1.40;99.90
1644;DHT22;46825;51.99869940;8.49421771;2022-11-20T02:46:59;-1.30;99.90
1644;DHT22;46825;51.99869940;8.49421771;2022-11-20T02:48:00;-1.40;99.90
1644;DHT22;46825;51.99869940;8.49421771;2022-11-20T02:49:02;-1.40;99.90
1644;DHT22;46825;51.99869940;8.49421771;2022-11-20T02:50:04;-1.20;99.90
1644;DHT22;46825;51.99869940;8.49421771;2022-11-20T02:51:05;-1.40;99.90
1644;DHT22;46825;51.99869940;8.49421771;2022-11-20T02:52:06;-1.30;99.90
1644;DHT22;46825;51.99869940;8.49421771;2022-11-20T02:53:07;-1.30;99.90
1644;DHT22;46825;51.99869940;8.49421771;2022-11-20T02:54:07;-1.20;99.90
1644;DHT22;46825;51.99869940;8.49421771;2022-11-20T02:55:08;-1.30;99.90
1644;DHT22;46825;51.99869940;8.49421771;2022-11-20T02:56:09;-1.10;99.90
1644;DHT22;46825;51.99869940;8.49421771;2022-11-20T02:57:10;-1.30;99.90
1644;DHT22;46825;51.99869940;8.49421771;2022-11-20T02:58:11;-1.40;99.90
1644;DHT22;46825;51.99869940;8.49421771;2022-11-20T02:59:11;-1.30;99.90
1644;DHT22;46825;51.99869940;8.49421771;2022-11-20T03:00:12;-1.30;99.90
1644;DHT22;46825;51.99869940;8.49421771;2022-11-20T03:01:13;-1.50;99.90
1644;DHT22;46825;51.99869940;8.49421771;2022-11-20T03:02:14;-1.50;99.90
1644;DHT22;46825;51.99869940;8.49421771;2022-11-20T03:03:15;-1.50;99.90
1644;DHT22;46825;51.99869940;8.49421771;2022-11-20T03:04:15;-1.50;99.90
1644;DHT22;46825;51.99869940;8.49421771;2022-11-20T03:05:16;-1.40;99.90
1644;DHT22;46825;51.99869940;8.49421771;2022-11-20T03:06:17;-1.40;99.90
1644;DHT22;46825;51.99869940;8.49421771;2022-11-20T03:07:17;-1.60;99.90
1644;DHT22;46825;51.99869940;8.49421771;2022-11-20T03:08:18;-0.90;99.90
1644;DHT22;46825;51.99869940;8.49421771;2022-11-20T03:09:18;-1.70;99.90
1644;DHT22;46825;51.99869940;8.49421771;2022-11-20T03:10:19;-1.70;99.90
1644;DHT22;46825;51.99869940;8.49421771;2022-11-20T03:11:20;-1.70;99.90
1644;DHT22;46825;51.99869940;8.49421771;2022-11-20T03:12:20;-1.70;99.90
1644;DHT22;46825;51.99869940;8.49421771;2022-11-20T03:13:21;-1.90;99.90
1644;DHT22;46825;51.99869940;8.49421771;2022-11-20T03:14:22;-1.90;99.90
1644;DHT22;46825;51.99869940;8.49421771;2022-11-20T03:15:23;-1.80;99.90
1644;DHT22;46825;51.99869940;8.49421771;2022-11-20T03:16:24;-2.00;99.90
1644;DHT22;46825;51.99869940;8.49421771;2022-11-20T03:17:24;-2.00;99.90
1644;DHT22;46825;51.99869940;8.49421771;2022-11-20T03:18:28;-1.90;99.90
1644;DHT22;46825;51.99869940;8.49421771;2022-11-20T03:19:29;-1.90;99.90
1644;DHT22;46825;51.99869940;8.49421771;2022-11-20T03:20:30;-1.90;99.90
1644;DHT22;46825;51.99869940;8.49421771;2022-11-20T03:21:32;-2.00;99.90
1644;DHT22;46825;51.99869940;8.49421771;2022-11-20T03:22:33;-2.00;99.90
1644;DHT22;46825;51.99869940;8.49421771;2022-11-20T03:23:34;-2.00;99.90
1644;DHT22;46825;51.99869940;8.49421771;2022-11-20T03:24:35;-2.00;99.90
1644;DHT22;46825;51.99869940;8.49421771;2022-11-20T03:25:35;-2.10;99.90
1644;DHT22;46825;51.99869940;8.49421771;2022-11-20T03:26:36;-2.00;99.90
1644;DHT22;46825;51.99869940;8.49421771;2022-11-20T03:27:37;-1.20;99.90
1644;DHT22;46825;51.99869940;8.49421771;2022-11-20T03:28:37;-1.80;99.90
1644;DHT22;46825;51.99869940;8.49421771;2022-11-20T03:29:38;-1.80;99.90
1644;DHT22;46825;51.99869940;8.49421771;2022-11-20T03:30:39;-1.80;99.90
1644;DHT22;46825;51.99869940;8.49421771;2022-11-20T03:31:40;-1.80;99.90
1644;DHT22;46825;51.99869940;8.49421771;2022-11-20T03:32:41;-1.70;99.90
1644;DHT22;46825;51.99869940;8.49421771;2022-11-20T03:33:42;-1.80;99.90
1644;DHT22;46825;51.99869940;8.49421771;2022-11-20T03:34:43;-1.80;99.90
1644;DHT22;46825;51.99869940;8.49421771;2022-11-20T03:35:43;-1.70;99.90
1644;DHT22;46825;51.99869940;8.49421771;2022-11-20T03:36:44;-1.70;99.90
1644;DHT22;46825;51.99869940;8.49421771;2022-11-20T03:37:45;-1.80;99.90
1644;DHT22;46825;51.99869940;8.49421771;2022-11-20T03:38:46;-1.80;99.90
1644;DHT22;46825;51.99869940;8.49421771;2022-11-20T03:39:47;-1.70;99.90
1644;DHT22;46825;51.99869940;8.49421771;2022-11-20T03:40:47;-1.80;99.90
1644;DHT22;46825;51.99869940;8.49421771;2022-11-20T03:41:49;-1.80;99.90
1644;DHT22;46825;51.99869940;8.49421771;2022-11-20T03:42:49;-1.80;99.90
1644;DHT22;46825;51.99869940;8.49421771;2022-11-20T03:43:52;-1.70;99.90
1644;DHT22;46825;51.99869940;8.49421771;2022-11-20T03:44:53;-1.80;99.90
1644;DHT22;46825;51.99869940;8.49421771;2022-11-20T03:45:53;-1.80;99.90
1644;DHT22;46825;51.99869940;8.49421771;2022-11-20T03:46:54;-1.80;99.90
1644;DHT22;46825;51.99869940;8.49421771;2022-11-20T03:47:54;0.00;99.90
1644;DHT22;46825;51.99869940;8.49421771;2022-11-20T03:48:56;-1.70;99.90
1644;DHT22;46825;51.99869940;8.49421771;2022-11-20T03:49:56;-1.70;99.90
1644;DHT22;46825;51.99869940;8.49421771;2022-11-20T03:51:27;-1.70;99.90
1644;DHT22;46825;51.99869940;8.49421771;2022-11-20T03:52:28;-1.80;99.90
1644;DHT22;46825;51.99869940;8.49421771;2022-11-20T03:53:28;-1.90;99.90
1644;DHT22;46825;51.99869940;8.49421771;2022-11-20T03:54:29;-2.10;99.90
1644;DHT22;46825;51.99869940;8.49421771;2022-11-20T03:55:30;-2.20;99.90
1644;DHT22;46825;51.99869940;8.49421771;2022-11-20T03:56:33;-2.20;99.90
1644;DHT22;46825;51.99869940;8.49421771;2022-11-20T03:57:33;-2.10;99.90
1644;DHT22;46825;51.99869940;8.49421771;2022-11-20T03:58:37;-2.10;99.90
1644;DHT22;46825;51.99869940;8.49421771;2022-11-20T03:59:39;-2.10;99.90
1644;DHT22;46825;51.99869940;8.49421771;2022-11-20T04:00:40;-2.10;99.90
1644;DHT22;46825;51.99869940;8.49421771;2022-11-20T04:01:41;-2.10;99.90
1644;DHT22;46825;51.99869940;8.49421771;2022-11-20T04:02:41;-2.30;99.90
1644;DHT22;46825;51.99869940;8.49421771;2022-11-20T04:03:43;-2.10;99.90
1644;DHT22;46825;51.99869940;8.49421771;2022-11-20T04:04:44;-2.00;99.90
1644;DHT22;46825;51.99869940;8.49421771;2022-11-20T04:05:44;-2.00;99.90
1644;DHT22;46825;51.99869940;8.49421771;2022-11-20T04:06:45;-1.90;99.90
1644;DHT22;46825;51.99869940;8.49421771;2022-11-20T04:07:46;-1.80;99.90
1644;DHT22;46825;51.99869940;8.49421771;2022-11-20T04:08:47;-1.90;99.90
1644;DHT22;46825;51.99869940;8.49421771;2022-11-20T04:09:47;-1.90;99.90
1644;DHT22;46825;51.99869940;8.49421771;2022-11-20T04:10:48;-1.80;99.90
1644;DHT22;46825;51.99869940;8.49421771;2022-11-20T04:11:49;-1.90;99.90
1644;DHT22;46825;51.99869940;8.49421771;2022-11-20T04:12:50;-1.90;99.90
1644;DHT22;46825;51.99869940;8.49421771;2022-11-20T04:13:53;-1.90;99.90
1644;DHT22;46825;51.99869940;8.49421771;2022-11-20T04:14:54;-1.80;99.90
1644;DHT22;46825;51.99869940;8.49421771;2022-11-20T04:15:57;-1.90;99.90
1644;DHT22;46825;51.99869940;8.49421771;2022-11-20T04:16:58;-1.90;99.90
1644;DHT22;46825;51.99869940;8.49421771;2022-11-20T04:17:59;-1.90;99.90
1644;DHT22;46825;51.99869940;8.49421771;2022-11-20T04:19:02;-2.00;99.90
1644;DHT22;46825;51.99869940;8.49421771;2022-11-20T04:20:04;-1.80;99.90
1644;DHT22;46825;51.99869940;8.49421771;2022-11-20T04:22:06;-2.00;99.90
1644;DHT22;46825;51.99869940;8.49421771;2022-11-20T04:23:07;-2.00;99.90
1644;DHT22;46825;51.99869940;8.49421771;2022-11-20T04:25:10;-2.20;99.90
1644;DHT22;46825;51.99869940;8.49421771;2022-11-20T04:26:11;-2.10;99.90
1644;DHT22;46825;51.99869940;8.49421771;2022-11-20T04:27:12;-2.00;99.90
1644;DHT22;46825;51.99869940;8.49421771;2022-11-20T04:28:13;-1.90;99.90
1644;DHT22;46825;51.99869940;8.49421771;2022-11-20T04:29:14;-1.90;99.90
1644;DHT22;46825;51.99869940;8.49421771;2022-11-20T04:30:14;-1.90;99.90
1644;DHT22;46825;51.99869940;8.49421771;2022-11-20T04:31:17;-1.70;99.90
1644;DHT22;46825;51.99869940;8.49421771;2022-11-20T04:32:18;-2.00;99.90
1644;DHT22;46825;51.99869940;8.49421771;2022-11-20T04:33:19;-2.00;99.90
1644;DHT22;46825;51.99869940;8.49421771;2022-11-20T04:34:19;-2.00;99.90
1644;DHT22;46825;51.99869940;8.49421771;2022-11-20T04:35:20;-2.10;99.90
1644;DHT22;46825;51.99869940;8.49421771;2022-11-20T04:36:24;-2.20;99.90
1644;DHT22;46825;51.99869940;8.49421771;2022-11-20T04:37:25;-2.20;99.90
1644;DHT22;46825;51.99869940;8.49421771;2022-11-20T04:38:25;-2.30;99.90
1644;DHT22;46825;51.99869940;8.49421771;2022-11-20T04:39:26;-2.20;99.90
1644;DHT22;46825;51.99869940;8.49421771;2022-11-20T04:40:28;-2.20;99.90
1644;DHT22;46825;51.99869940;8.49421771;2022-11-20T04:41:32;-1.90;99.90
1644;DHT22;46825;51.99869940;8.49421771;2022-11-20T04:42:33;-2.20;99.90
1644;DHT22;46825;51.99869940;8.49421771;2022-11-20T04:43:34;-1.80;99.90
1644;DHT22;46825;51.99869940;8.49421771;2022-11-20T04:44:34;-2.30;99.90
1644;DHT22;46825;51.99869940;8.49421771;2022-11-20T04:45:35;-2.10;99.90
1644;DHT22;46825;51.99869940;8.49421771;2022-11-20T04:46:40;-2.00;99.90
1644;DHT22;46825;51.99869940;8.49421771;2022-11-20T04:47:41;-1.90;99.90
1644;DHT22;46825;51.99869940;8.49421771;2022-11-20T04:48:42;-1.90;99.90
1644;DHT22;46825;51.99869940;8.49421771;2022-11-20T04:49:42;-2.00;99.90
1644;DHT22;46825;51.99869940;8.49421771;2022-11-20T04:50:43;-2.00;99.90
1644;DHT22;46825;51.99869940;8.49421771;2022-11-20T04:51:44;-2.00;99.90
1644;DHT22;46825;51.99869940;8.49421771;2022-11-20T04:52:44;-2.00;99.90
1644;DHT22;46825;51.99869940;8.49421771;2022-11-20T04:53:45;-2.00;99.90
1644;DHT22;46825;51.99869940;8.49421771;2022-11-20T04:54:46;-1.90;99.90
1644;DHT22;46825;51.99869940;8.49421771;2022-11-20T04:55:46;-2.00;99.90
1644;DHT22;46825;51.99869940;8.49421771;2022-11-20T04:56:47;-2.00;99.90
1644;DHT22;46825;51.99869940;8.49421771;2022-11-20T04:57:50;-2.00;99.90
1644;DHT22;46825;51.99869940;8.49421771;2022-11-20T04:58:52;-1.90;99.90
1644;DHT22;46825;51.99869940;8.49421771;2022-11-20T04:59:52;-1.90;99.90
1644;DHT22;46825;51.99869940;8.49421771;2022-11-20T05:00:53;-1.90;99.90
1644;DHT22;46825;51.99869940;8.49421771;2022-11-20T05:02:54;-2.00;99.90
1644;DHT22;46825;51.99869940;8.49421771;2022-11-20T05:03:55;-1.50;99.90
1644;DHT22;46825;51.99869940;8.49421771;2022-11-20T05:04:56;-2.00;99.90
1644;DHT22;46825;51.99869940;8.49421771;2022-11-20T05:05:59;-2.10;99.90
1644;DHT22;46825;51.99869940;8.49421771;2022-11-20T05:07:00;-2.00;99.90
1644;DHT22;46825;51.99869940;8.49421771;2022-11-20T05:08:00;-2.00;99.90
1644;DHT22;46825;51.99869940;8.49421771;2022-11-20T05:09:01;-2.00;99.90
1644;DHT22;46825;51.99869940;8.49421771;2022-11-20T05:10:02;-2.00;99.90
1644;DHT22;46825;51.99869940;8.49421771;2022-11-20T05:11:11;-1.90;99.90
1644;DHT22;46825;51.99869940;8.49421771;2022-11-20T05:12:12;-2.00;99.90
1644;DHT22;46825;51.99869940;8.49421771;2022-11-20T05:13:13;-2.00;99.90
1644;DHT22;46825;51.99869940;8.49421771;2022-11-20T05:14:14;-1.90;99.90
1644;DHT22;46825;51.99869940;8.49421771;2022-11-20T05:15:14;-2.00;99.90
1644;DHT22;46825;51.99869940;8.49421771;2022-11-20T05:16:17;-2.00;99.90
1644;DHT22;46825;51.99869940;8.49421771;2022-11-20T05:17:18;-2.00;99.90
1644;DHT22;46825;51.99869940;8.49421771;2022-11-20T05:18:19;-2.00;99.90
1644;DHT22;46825;51.99869940;8.49421771;2022-11-20T05:19:20;1.20;99.90
1644;DHT22;46825;51.99869940;8.49421771;2022-11-20T05:20:21;-1.90;99.90
1644;DHT22;46825;51.99869940;8.49421771;2022-11-20T05:21:22;-2.10;99.90
1644;DHT22;46825;51.99869940;8.49421771;2022-11-20T05:22:22;-2.20;99.90
1644;DHT22;46825;51.99869940;8.49421771;2022-11-20T05:23:24;-2.10;99.90
1644;DHT22;46825;51.99869940;8.49421771;2022-11-20T05:24:24;-2.20;99.90
1644;DHT22;46825;51.99869940;8.49421771;2022-11-20T05:25:25;-2.20;99.90
1644;DHT22;46825;51.99869940;8.49421771;2022-11-20T05:26:26;-2.20;99.90
1644;DHT22;46825;51.99869940;8.49421771;2022-11-20T05:27:27;-2.20;99.90
1644;DHT22;46825;51.99869940;8.49421771;2022-11-20T05:28:29;-2.20;99.90
1644;DHT22;46825;51.99869940;8.49421771;2022-11-20T05:29:30;-2.10;99.90
1644;DHT22;46825;51.99869940;8.49421771;2022-11-20T05:30:31;-2.00;99.90
1644;DHT22;46825;51.99869940;8.49421771;2022-11-20T05:31:31;-1.90;99.90
1644;DHT22;46825;51.99869940;8.49421771;2022-11-20T05:32:32;-1.90;99.90
1644;DHT22;46825;51.99869940;8.49421771;2022-11-20T05:33:34;-1.70;99.90
1644;DHT22;46825;51.99869940;8.49421771;2022-11-20T05:34:35;-2.10;99.90
1644;DHT22;46825;51.99869940;8.49421771;2022-11-20T05:35:35;-2.00;99.90
1644;DHT22;46825;51.99869940;8.49421771;2022-11-20T05:36:36;-2.00;99.90
1644;DHT22;46825;51.99869940;8.49421771;2022-11-20T05:37:37;-1.90;99.90
1644;DHT22;46825;51.99869940;8.49421771;2022-11-20T05:38:38;-1.90;99.90
1644;DHT22;46825;51.99869940;8.49421771;2022-11-20T05:39:39;-1.90;99.90
1644;DHT22;46825;51.99869940;8.49421771;2022-11-20T05:40:39;-1.80;99.90
1644;DHT22;46825;51.99869940;8.49421771;2022-11-20T05:41:40;-1.80;99.90
1644;DHT22;46825;51.99869940;8.49421771;2022-11-20T05:42:40;-1.80;99.90
1644;DHT22;46825;51.99869940;8.49421771;2022-11-20T05:43:45;-1.80;99.90
1644;DHT22;46825;51.99869940;8.49421771;2022-11-20T05:44:46;-1.80;99.90
1644;DHT22;46825;51.99869940;8.49421771;2022-11-20T05:45:54;-2.00;99.90
1644;DHT22;46825;51.99869940;8.49421771;2022-11-20T05:46:54;-2.00;99.90
1644;DHT22;46825;51.99869940;8.49421771;2022-11-20T05:47:58;-2.00;99.90
1644;DHT22;46825;51.99869940;8.49421771;2022-11-20T05:49:00;-2.10;99.90
1644;DHT22;46825;51.99869940;8.49421771;2022-11-20T05:50:01;-2.00;99.90
1644;DHT22;46825;51.99869940;8.49421771;2022-11-20T05:51:03;-2.00;99.90
1644;DHT22;46825;51.99869940;8.49421771;2022-11-20T05:52:04;-1.90;99.90
1644;DHT22;46825;51.99869940;8.49421771;2022-11-20T05:53:05;-1.90;99.90
1644;DHT22;46825;51.99869940;8.49421771;2022-11-20T05:54:05;-1.80;99.90
1644;DHT22;46825;51.99869940;8.49421771;2022-11-20T05:55:06;-1.80;99.90